createdAt,value
2022-12-31T00:00:19.390Z,158.05
2022-12-31T00:02:46.262Z,157.48
2022-12-31T00:05:13.768Z,150.38
2022-12-31T00:10:06.491Z,142.75
2022-12-31T00:12:33.232Z,153.93
2022-12-31T00:15:00.028Z,154.95
2022-12-31T00:17:26.884Z,157.90
2022-12-31T00:19:53.623Z,145.35
2022-12-31T00:22:22.551Z,157.85
2022-12-31T00:24:49.332Z,144.73
2022-12-31T00:27:16.359Z,152.23
2022-12-31T00:29:43.069Z,148.43
2022-12-31T00:32:09.748Z,139.95
2022-12-31T00:34:36.448Z,140.70
2022-12-31T00:37:03.175Z,147.13
2022-12-31T00:39:30.097Z,138.95
2022-12-31T00:41:56.797Z,146.90
2022-12-31T00:44:23.553Z,143.00
2022-12-31T00:46:50.287Z,139.40
2022-12-31T00:49:17.134Z,148.93
2022-12-31T00:51:43.936Z,139.63
2022-12-31T00:54:10.710Z,148.23
2022-12-31T00:56:37.425Z,151.27
2022-12-31T00:59:04.532Z,140.30
2022-12-31T01:01:37.018Z,142.80
2022-12-31T01:04:06.972Z,146.55
2022-12-31T01:06:33.882Z,146.25
2022-12-31T01:09:00.739Z,145.02
2022-12-31T01:11:30.832Z,136.75
2022-12-31T01:14:00.467Z,151.52
2022-12-31T01:16:37.564Z,144.70
2022-12-31T01:19:07.118Z,139.27
2022-12-31T01:21:36.285Z,137.43
2022-12-31T01:24:03.575Z,151.40
2022-12-31T01:26:30.901Z,138.00
2022-12-31T01:28:57.779Z,152.23
2022-12-31T01:31:25.491Z,144.65
2022-12-31T01:33:53.320Z,139.23
2022-12-31T01:36:26.837Z,138.00
2022-12-31T01:38:58.869Z,143.85
2022-12-31T01:41:33.395Z,141.43
2022-12-31T01:44:25.936Z,136.10
2022-12-31T01:46:59.379Z,135.32
2022-12-31T01:49:27.769Z,143.10
2022-12-31T01:52:02.898Z,142.82
2022-12-31T01:54:34.040Z,142.40
2022-12-31T01:57:01.679Z,139.77
2022-12-31T01:59:29.924Z,146.48
2022-12-31T02:01:57.083Z,142.48
2022-12-31T02:04:25.806Z,143.50
2022-12-31T02:07:00.958Z,143.15
2022-12-31T02:09:27.711Z,131.88
2022-12-31T02:11:54.482Z,135.70
2022-12-31T02:14:25.954Z,147.90
2022-12-31T02:17:07.521Z,143.13
2022-12-31T02:19:51.205Z,129.32
2022-12-31T02:22:20.925Z,147.68
2022-12-31T02:25:09.720Z,128.07
2022-12-31T02:27:52.557Z,142.75
2022-12-31T02:30:25.010Z,131.55
2022-12-31T02:33:00.129Z,138.82
2022-12-31T02:36:01.130Z,134.27
2022-12-31T02:38:33.876Z,138.55
2022-12-31T02:41:01.257Z,136.20
2022-12-31T02:43:28.389Z,133.23
2022-12-31T02:45:58.186Z,138.15
2022-12-31T02:48:34.001Z,132.70
2022-12-31T02:51:26.741Z,141.38
2022-12-31T02:54:09.308Z,134.20
2022-12-31T02:57:00.670Z,141.43
2022-12-31T03:00:07.615Z,143.05
2022-12-31T03:02:37.010Z,145.20
2022-12-31T03:05:04.100Z,148.20
2022-12-31T03:07:32.946Z,159.23
2022-12-31T03:10:03.933Z,148.82
2022-12-31T03:12:48.896Z,154.07
2022-12-31T03:15:23.780Z,151.73
2022-12-31T03:18:04.247Z,136.55
2022-12-31T03:20:59.179Z,146.18
2022-12-31T03:23:30.389Z,153.45
2022-12-31T03:25:58.583Z,137.73
2022-12-31T03:28:28.238Z,144.48
2022-12-31T03:30:58.359Z,146.70
2022-12-31T03:33:26.147Z,137.73
2022-12-31T03:35:53.515Z,142.98
2022-12-31T03:38:21.024Z,149.77
2022-12-31T03:40:50.406Z,140.93
2022-12-31T03:43:19.395Z,144.52
2022-12-31T03:45:51.770Z,143.57
2022-12-31T03:48:20.131Z,155.25
2022-12-31T03:50:46.873Z,144.13
2022-12-31T03:53:13.852Z,138.93
2022-12-31T03:55:40.729Z,151.55
2022-12-31T03:58:07.700Z,153.20
2022-12-31T04:00:35.068Z,143.60
2022-12-31T04:03:02.050Z,146.77
2022-12-31T04:05:28.843Z,154.55
2022-12-31T04:07:56.563Z,143.05
2022-12-31T04:10:25.939Z,146.90
2022-12-31T04:12:52.690Z,150.90
2022-12-31T04:15:20.728Z,156.50
2022-12-31T04:17:48.247Z,151.48
2022-12-31T04:20:16.325Z,139.35
2022-12-31T04:22:44.125Z,140.30
2022-12-31T04:25:11.734Z,142.77
2022-12-31T04:27:40.893Z,137.57
2022-12-31T04:30:09.779Z,143.23
2022-12-31T04:32:36.541Z,151.82
2022-12-31T04:35:03.647Z,136.20
2022-12-31T04:37:30.386Z,148.43
2022-12-31T04:40:03.520Z,140.05
2022-12-31T04:42:32.414Z,154.63
2022-12-31T04:44:59.286Z,142.88
2022-12-31T04:47:25.998Z,139.32
2022-12-31T04:49:52.721Z,159.57
2022-12-31T04:52:19.448Z,156.90
2022-12-31T04:54:46.152Z,158.68
2022-12-31T04:57:12.913Z,140.60
2022-12-31T04:59:39.827Z,156.40
2022-12-31T05:02:06.828Z,151.93
2022-12-31T05:04:33.725Z,143.07
2022-12-31T05:07:00.497Z,148.80
2022-12-31T05:09:28.432Z,143.05
2022-12-31T05:11:55.241Z,144.32
2022-12-31T05:14:21.993Z,146.20
2022-12-31T05:16:48.876Z,156.65
2022-12-31T05:19:18.185Z,141.50
2022-12-31T05:22:04.931Z,155.35
2022-12-31T05:24:31.874Z,157.30
2022-12-31T05:26:58.673Z,144.63
2022-12-31T05:29:26.089Z,154.15
2022-12-31T05:31:52.968Z,148.05
2022-12-31T05:34:19.730Z,144.48
2022-12-31T05:36:46.441Z,151.73
2022-12-31T05:39:13.188Z,148.40
2022-12-31T05:41:39.929Z,141.05
2022-12-31T05:44:06.661Z,150.00
2022-12-31T05:46:33.435Z,146.10
2022-12-31T05:49:00.170Z,141.18
2022-12-31T05:51:26.875Z,150.32
2022-12-31T05:53:53.767Z,144.63
2022-12-31T05:56:21.888Z,140.43
2022-12-31T05:58:48.606Z,150.93
2022-12-31T06:01:15.420Z,145.95
2022-12-31T06:03:42.197Z,147.50
2022-12-31T06:06:08.988Z,157.05
2022-12-31T06:08:35.743Z,155.35
2022-12-31T06:11:02.559Z,147.10
2022-12-31T06:13:29.948Z,152.48
2022-12-31T06:15:56.865Z,146.88
2022-12-31T06:18:23.680Z,143.32
2022-12-31T06:20:50.372Z,160.90
2022-12-31T06:23:17.111Z,158.95
2022-12-31T06:25:43.858Z,146.63
2022-12-31T06:28:16.143Z,213.45
2022-12-31T06:30:47.304Z,146.57
2022-12-31T06:33:14.153Z,142.07
2022-12-31T06:35:40.872Z,162.45
2022-12-31T06:38:07.797Z,157.57
2022-12-31T06:40:37.511Z,171.48
2022-12-31T06:43:05.824Z,157.93
2022-12-31T06:45:32.542Z,165.75
2022-12-31T06:47:59.233Z,152.85
2022-12-31T06:50:25.959Z,162.45
2022-12-31T06:52:53.715Z,160.02
2022-12-31T06:55:20.841Z,148.63
2022-12-31T06:57:50.493Z,144.38
2022-12-31T07:00:17.939Z,153.88
2022-12-31T07:03:21.312Z,162.48
2022-12-31T07:06:20.365Z,148.88
2022-12-31T07:09:03.736Z,145.32
2022-12-31T07:11:52.566Z,155.70
2022-12-31T07:14:40.648Z,156.77
2022-12-31T07:17:22.581Z,157.10
2022-12-31T07:19:57.756Z,157.77
2022-12-31T07:22:25.188Z,156.15
2022-12-31T07:24:52.390Z,145.90
2022-12-31T07:27:37.483Z,148.65
2022-12-31T07:30:15.753Z,161.35
2022-12-31T07:33:15.077Z,156.70
2022-12-31T07:36:00.143Z,160.55
2022-12-31T07:39:08.502Z,168.95
2022-12-31T07:41:55.976Z,147.35
2022-12-31T07:44:45.530Z,165.07
2022-12-31T07:47:22.093Z,148.68
2022-12-31T07:49:49.078Z,156.82
2022-12-31T07:52:16.172Z,151.45
2022-12-31T07:54:43.143Z,154.93
2022-12-31T07:57:12.438Z,150.40
2022-12-31T07:59:54.496Z,164.88
2022-12-31T08:02:30.408Z,152.27
2022-12-31T08:05:04.277Z,152.90
2022-12-31T08:07:42.713Z,148.48
2022-12-31T08:10:25.605Z,151.52
2022-12-31T08:13:00.598Z,150.88
2022-12-31T08:15:30.603Z,144.82
2022-12-31T08:17:58.052Z,154.38
2022-12-31T08:20:26.411Z,154.77
2022-12-31T08:23:11.665Z,152.55
2022-12-31T08:26:13.706Z,158.93
2022-12-31T08:29:14.350Z,156.35
2022-12-31T08:31:54.425Z,149.65
2022-12-31T08:34:30.297Z,149.10
2022-12-31T08:37:24.993Z,151.73
2022-12-31T08:40:11.066Z,151.10
2022-12-31T08:43:12.679Z,159.20
2022-12-31T08:45:43.585Z,159.38
2022-12-31T08:48:39.697Z,151.98
2022-12-31T08:51:12.825Z,153.32
2022-12-31T08:53:39.939Z,159.00
2022-12-31T08:56:29.923Z,159.98
2022-12-31T08:59:14.777Z,148.60
2022-12-31T09:01:59.418Z,160.73
2022-12-31T09:04:43.883Z,155.02
2022-12-31T09:07:12.677Z,150.65
2022-12-31T09:09:39.677Z,163.32
2022-12-31T09:12:38.117Z,164.40
2022-12-31T09:15:37.041Z,161.30
2022-12-31T09:18:04.125Z,161.50
2022-12-31T09:20:42.735Z,155.68
2022-12-31T09:23:12.181Z,153.68
2022-12-31T09:25:58.642Z,158.65
2022-12-31T09:28:39.613Z,153.73
2022-12-31T09:31:15.655Z,159.63
2022-12-31T09:33:55.746Z,157.23
2022-12-31T09:36:30.465Z,156.00
2022-12-31T09:39:00.358Z,211.48
2022-12-31T09:41:30.231Z,160.57
2022-12-31T09:44:34.462Z,170.00
2022-12-31T09:47:36.228Z,181.77
2022-12-31T09:50:21.140Z,173.40
2022-12-31T09:53:16.244Z,163.70
2022-12-31T09:55:54.939Z,160.65
2022-12-31T09:58:36.920Z,159.60
2022-12-31T10:01:19.049Z,164.05
2022-12-31T10:04:00.717Z,166.85
2022-12-31T10:06:37.462Z,156.10
2022-12-31T10:09:25.670Z,159.57
2022-12-31T10:12:13.654Z,155.43
2022-12-31T10:14:53.917Z,162.43
2022-12-31T10:17:41.863Z,167.10
2022-12-31T10:20:25.506Z,145.95
2022-12-31T10:23:20.990Z,160.55
2022-12-31T10:25:51.457Z,175.02
2022-12-31T10:28:41.097Z,170.57
2022-12-31T10:31:28.630Z,174.73
2022-12-31T10:34:16.139Z,157.43
2022-12-31T10:36:53.329Z,166.63
2022-12-31T10:39:46.331Z,166.25
2022-12-31T10:42:34.831Z,171.32
2022-12-31T10:45:17.133Z,166.75
2022-12-31T10:48:05.649Z,156.85
2022-12-31T10:51:07.579Z,155.35
2022-12-31T10:54:02.264Z,174.93
2022-12-31T10:56:53.895Z,171.63
2022-12-31T10:59:54.728Z,169.38
2022-12-31T11:02:40.083Z,158.18
2022-12-31T11:05:21.894Z,161.60
2022-12-31T11:08:25.895Z,174.85
2022-12-31T11:10:55.790Z,165.60
2022-12-31T11:13:46.854Z,176.60
2022-12-31T11:16:24.526Z,167.02
2022-12-31T11:18:57.417Z,165.20
2022-12-31T11:21:30.944Z,169.70
2022-12-31T11:24:24.735Z,165.27
2022-12-31T11:26:57.448Z,166.57
2022-12-31T11:29:51.628Z,176.18
2022-12-31T11:32:56.112Z,175.93
2022-12-31T11:35:28.609Z,171.80
2022-12-31T11:38:30.805Z,170.75
2022-12-31T11:41:11.716Z,176.05
2022-12-31T11:43:50.636Z,163.77
2022-12-31T11:46:29.527Z,165.00
2022-12-31T11:49:23.712Z,216.55
2022-12-31T11:52:05.743Z,169.13
2022-12-31T11:54:51.063Z,178.85
2022-12-31T11:57:29.990Z,169.95
2022-12-31T12:00:21.275Z,170.98
2022-12-31T12:02:55.385Z,178.30
2022-12-31T12:05:24.300Z,177.50
2022-12-31T12:07:52.769Z,177.77
2022-12-31T12:10:44.763Z,180.68
2022-12-31T12:13:17.686Z,193.50
2022-12-31T12:16:05.839Z,185.95
2022-12-31T12:19:02.149Z,186.98
2022-12-31T12:21:29.254Z,192.67
2022-12-31T12:23:58.569Z,186.88
2022-12-31T12:26:30.620Z,190.32
2022-12-31T12:29:01.490Z,184.32
2022-12-31T12:31:28.345Z,190.25
2022-12-31T12:33:55.207Z,191.00
2022-12-31T12:36:22.096Z,193.35
2022-12-31T12:39:00.060Z,187.25
2022-12-31T12:41:27.771Z,197.88
2022-12-31T12:44:13.768Z,202.52
2022-12-31T12:46:49.235Z,193.98
2022-12-31T12:49:43.958Z,205.93
2022-12-31T12:52:22.093Z,199.45
2022-12-31T12:55:19.259Z,207.75
2022-12-31T12:58:02.924Z,213.85
2022-12-31T13:00:46.889Z,212.35
2022-12-31T13:04:32.570Z,205.35
2022-12-31T13:07:06.046Z,199.85
2022-12-31T13:09:59.099Z,200.00
2022-12-31T13:16:12.310Z,205.13
2022-12-31T13:18:48.072Z,199.85
2022-12-31T13:21:21.076Z,207.65
2022-12-31T13:23:57.573Z,208.93
2022-12-31T13:26:42.699Z,206.48
2022-12-31T13:29:19.024Z,195.77
2022-12-31T13:31:47.558Z,199.90
2022-12-31T13:34:19.301Z,197.82
2022-12-31T13:36:48.805Z,202.40
2022-12-31T13:39:29.404Z,202.95
2022-12-31T13:42:02.409Z,196.73
2022-12-31T13:44:36.131Z,195.30
2022-12-31T13:47:13.098Z,192.38
2022-12-31T13:49:39.806Z,191.55
2022-12-31T13:52:24.715Z,197.82
2022-12-31T13:55:15.424Z,192.63
2022-12-31T13:57:47.262Z,198.55
2022-12-31T14:00:25.443Z,191.02
2022-12-31T14:03:22.108Z,193.55
2022-12-31T14:06:13.414Z,191.75
2022-12-31T14:08:41.348Z,190.73
2022-12-31T14:11:14.297Z,192.43
2022-12-31T14:13:49.937Z,195.55
2022-12-31T14:16:16.765Z,190.80
2022-12-31T14:18:57.656Z,191.00
2022-12-31T14:21:34.129Z,194.45
2022-12-31T14:24:22.402Z,189.05
2022-12-31T14:26:56.867Z,194.27
2022-12-31T14:29:32.832Z,186.07
2022-12-31T14:34:45.458Z,195.02
2022-12-31T14:37:28.014Z,189.68
2022-12-31T14:40:19.883Z,191.02
2022-12-31T14:43:12.607Z,191.50
2022-12-31T14:46:12.616Z,206.45
2022-12-31T14:48:57.833Z,195.13
2022-12-31T14:51:30.993Z,196.90
2022-12-31T14:53:58.891Z,188.38
2022-12-31T14:56:37.649Z,196.63
2022-12-31T14:59:21.697Z,188.05
2022-12-31T15:01:48.518Z,195.30
2022-12-31T15:04:15.349Z,194.73
2022-12-31T15:06:58.627Z,190.27
2022-12-31T15:09:50.606Z,196.38
2022-12-31T15:12:29.361Z,202.65
2022-12-31T15:15:11.380Z,194.02
2022-12-31T15:17:48.909Z,193.05
2022-12-31T15:20:33.669Z,196.15
2022-12-31T15:23:00.597Z,196.60
2022-12-31T15:25:35.244Z,195.43
2022-12-31T15:28:11.097Z,193.50
2022-12-31T15:30:44.490Z,197.20
2022-12-31T15:33:30.030Z,189.73
2022-12-31T15:35:58.048Z,191.32
2022-12-31T15:38:36.142Z,185.35
2022-12-31T15:41:19.585Z,185.20
2022-12-31T15:43:51.824Z,181.23
2022-12-31T15:46:34.199Z,193.20
2022-12-31T15:49:15.653Z,188.48
2022-12-31T15:52:04.797Z,189.60
2022-12-31T15:54:44.743Z,180.52
2022-12-31T15:57:21.010Z,190.80
2022-12-31T15:59:47.893Z,182.63
2022-12-31T16:02:21.985Z,184.23
2022-12-31T16:04:49.606Z,185.60
2022-12-31T16:07:17.443Z,181.70
2022-12-31T16:09:49.683Z,184.05
2022-12-31T16:12:23.675Z,193.63
2022-12-31T16:14:55.603Z,180.75
2022-12-31T16:17:34.272Z,188.40
2022-12-31T16:20:20.139Z,189.50
2022-12-31T16:22:56.284Z,195.07
2022-12-31T16:27:59.462Z,185.07
2022-12-31T16:30:31.193Z,197.48
2022-12-31T16:33:04.809Z,199.13
2022-12-31T16:35:34.432Z,185.93
2022-12-31T16:38:15.283Z,191.55
2022-12-31T16:40:44.536Z,192.93
2022-12-31T16:43:36.475Z,205.00
2022-12-31T16:46:11.308Z,199.05
2022-12-31T16:48:38.604Z,194.38
2022-12-31T16:51:06.160Z,194.00
2022-12-31T16:53:38.128Z,197.02
2022-12-31T16:56:09.150Z,190.38
2022-12-31T16:58:45.422Z,197.40
2022-12-31T17:01:18.357Z,193.23
2022-12-31T17:03:50.981Z,193.82
2022-12-31T17:06:20.045Z,193.65
2022-12-31T17:09:04.534Z,207.73
2022-12-31T17:11:31.368Z,193.80
2022-12-31T17:14:09.557Z,195.32
2022-12-31T17:17:02.554Z,199.85
2022-12-31T17:19:46.723Z,189.73
2022-12-31T17:22:35.859Z,191.93
2022-12-31T17:25:10.896Z,204.73
2022-12-31T17:27:37.676Z,200.38
2022-12-31T17:30:40.299Z,191.73
2022-12-31T17:33:27.808Z,211.02
2022-12-31T17:35:57.175Z,200.90
2022-12-31T17:38:23.865Z,214.75
2022-12-31T17:40:53.680Z,207.55
2022-12-31T17:43:22.949Z,216.23
2022-12-31T17:45:54.443Z,218.20
2022-12-31T17:48:24.452Z,213.25
2022-12-31T17:50:53.657Z,210.20
2022-12-31T17:53:20.929Z,205.05
2022-12-31T17:55:50.040Z,211.50
2022-12-31T17:58:55.882Z,207.73
2022-12-31T18:01:23.704Z,212.57
2022-12-31T18:03:50.669Z,218.07
2022-12-31T18:06:19.621Z,198.15
2022-12-31T18:08:46.974Z,198.60
2022-12-31T18:11:22.278Z,206.05
2022-12-31T18:13:49.847Z,213.67
2022-12-31T18:16:17.273Z,205.10
2022-12-31T18:18:45.495Z,212.32
2022-12-31T18:21:35.965Z,218.65
2022-12-31T18:26:32.740Z,220.75
2022-12-31T18:29:09.084Z,208.30
2022-12-31T18:34:02.812Z,222.05
2022-12-31T18:36:29.537Z,210.90
2022-12-31T18:38:56.309Z,206.23
2022-12-31T18:41:32.648Z,209.57
2022-12-31T18:43:59.373Z,211.82
2022-12-31T18:46:27.058Z,216.40
2022-12-31T18:48:53.844Z,204.15
2022-12-31T18:51:31.420Z,212.27
2022-12-31T18:54:02.934Z,203.75
2022-12-31T18:56:29.850Z,206.15
2022-12-31T18:58:56.752Z,200.00
2022-12-31T19:01:28.197Z,211.65
2022-12-31T19:04:00.549Z,207.00
2022-12-31T19:06:28.554Z,207.93
2022-12-31T19:08:55.823Z,198.88
2022-12-31T19:11:23.069Z,212.82
2022-12-31T19:13:50.379Z,208.10
2022-12-31T19:16:18.030Z,209.60
2022-12-31T19:18:45.391Z,206.30
2022-12-31T19:21:18.506Z,198.95
2022-12-31T19:23:46.245Z,203.60
2022-12-31T19:26:20.623Z,198.27
2022-12-31T19:28:49.212Z,205.57
2022-12-31T19:31:16.419Z,202.52
2022-12-31T19:33:44.134Z,197.85
2022-12-31T19:36:18.420Z,203.00
2022-12-31T19:38:45.784Z,199.85
2022-12-31T19:41:18.243Z,199.98
2022-12-31T19:43:46.167Z,196.48
2022-12-31T19:46:19.192Z,195.55
2022-12-31T19:48:46.740Z,193.32
2022-12-31T19:51:19.057Z,201.40
2022-12-31T19:53:47.507Z,202.63
2022-12-31T19:56:16.826Z,202.48
2022-12-31T19:58:44.101Z,206.82
2022-12-31T20:01:22.692Z,206.65
2022-12-31T20:03:55.071Z,211.18
2022-12-31T20:06:21.743Z,201.60
2022-12-31T20:08:50.747Z,205.95
2022-12-31T20:11:23.857Z,214.50
2022-12-31T20:13:52.397Z,211.30
2022-12-31T20:16:21.327Z,202.82
2022-12-31T20:18:48.510Z,212.10
2022-12-31T20:21:21.646Z,216.43
2022-12-31T20:23:53.990Z,214.80
2022-12-31T20:26:22.177Z,205.30
2022-12-31T20:28:52.615Z,209.25
2022-12-31T20:31:24.301Z,205.30
2022-12-31T20:33:51.757Z,199.43
2022-12-31T20:36:18.613Z,195.25
2022-12-31T20:38:48.999Z,190.02
2022-12-31T20:41:20.722Z,203.25
2022-12-31T20:43:48.253Z,197.10
2022-12-31T20:46:20.095Z,207.95
2022-12-31T20:48:48.751Z,208.25
2022-12-31T20:51:16.713Z,205.52
2022-12-31T20:53:52.102Z,201.10
2022-12-31T20:56:19.246Z,194.80
2022-12-31T20:58:47.964Z,174.85
2022-12-31T21:01:16.002Z,194.40
2022-12-31T21:06:32.040Z,191.30
2022-12-31T21:09:00.710Z,180.73
2022-12-31T21:11:46.271Z,184.13
2022-12-31T21:14:13.272Z,169.70
2022-12-31T21:16:39.968Z,173.48
2022-12-31T21:19:12.823Z,187.98
2022-12-31T21:21:39.528Z,177.95
2022-12-31T21:24:09.492Z,188.65
2022-12-31T21:26:38.961Z,179.23
2022-12-31T21:29:05.713Z,189.25
2022-12-31T21:31:35.481Z,180.32
2022-12-31T21:34:02.242Z,187.23
2022-12-31T21:36:28.936Z,181.18
2022-12-31T21:38:58.187Z,188.82
2022-12-31T21:41:43.389Z,193.77
2022-12-31T21:44:10.159Z,181.27
2022-12-31T21:46:42.619Z,190.32
2022-12-31T21:49:21.561Z,183.95
2022-12-31T21:52:06.742Z,188.55
2022-12-31T21:54:52.501Z,179.05
2022-12-31T21:57:21.271Z,175.45
2022-12-31T22:00:40.522Z,180.48
2022-12-31T22:03:16.457Z,164.35
2022-12-31T22:06:00.007Z,166.10
2022-12-31T22:08:28.232Z,165.25
2022-12-31T22:10:55.229Z,168.48
2022-12-31T22:13:23.553Z,167.95
2022-12-31T22:16:01.767Z,168.10
2022-12-31T22:18:34.108Z,165.25
2022-12-31T22:21:17.380Z,164.57
2022-12-31T22:23:45.439Z,162.05
2022-12-31T22:26:14.356Z,163.82
2022-12-31T22:28:42.749Z,153.23
2022-12-31T22:31:13.705Z,158.75
2022-12-31T22:33:40.550Z,165.57
2022-12-31T22:36:12.108Z,171.27
2022-12-31T22:38:39.067Z,170.68
2022-12-31T22:41:09.293Z,176.85
2022-12-31T22:43:39.469Z,181.70
2022-12-31T22:46:15.319Z,170.13
2022-12-31T22:48:42.581Z,167.35
2022-12-31T22:51:10.663Z,173.25
2022-12-31T22:53:39.608Z,183.27
2022-12-31T22:56:07.239Z,165.50
2022-12-31T22:58:34.030Z,164.68
2022-12-31T23:01:04.486Z,167.75
2022-12-31T23:03:31.365Z,181.98
2022-12-31T23:05:58.108Z,187.25
2022-12-31T23:08:24.871Z,189.52
2022-12-31T23:11:05.663Z,195.65
2022-12-31T23:13:57.835Z,179.55
2022-12-31T23:16:45.614Z,180.38
2022-12-31T23:19:31.501Z,198.85
2022-12-31T23:22:17.048Z,213.37
2022-12-31T23:24:43.791Z,226.50
2022-12-31T23:27:11.145Z,219.80
2022-12-31T23:29:46.268Z,237.85
2022-12-31T23:34:46.360Z,220.90
2022-12-31T23:37:14.643Z,236.73
2022-12-31T23:39:42.186Z,202.80
2022-12-31T23:42:09.202Z,210.65
2022-12-31T23:44:36.103Z,205.35
2022-12-31T23:47:02.980Z,213.98
2022-12-31T23:49:30.166Z,194.98
2022-12-31T23:51:56.914Z,208.85
2022-12-31T23:54:23.764Z,209.50
2022-12-31T23:56:50.435Z,196.65
2022-12-31T23:59:18.497Z,184.00
